Time,TemperatureF,DewpointF,PressureIn,WindDirection,WindDirectionDegrees,WindSpeedMPH,WindSpeedGustMPH,Humidity,HourlyPrecipIn,Conditions,Clouds,dailyrainin,SoftwareType,DateUTC
2013-10-10 00:01:00,38.6,37.6,30.25,SE,138,0.0,0.0,96,0.00,,---,0.00,VWS V13.01,2013-10-10 04:01:00,
2013-10-10 00:02:00,38.7,37.7,30.25,SE,138,0.0,0.0,96,0.00,,---,0.00,VWS V13.01,2013-10-10 04:02:00,
2013-10-10 00:05:00,38.8,37.8,30.25,SE,138,0.0,0.0,96,0.00,,---,0.00,VWS V13.01,2013-10-10 04:05:00,
2013-10-10 00:09:00,38.8,37.8,30.25,SE,138,0.0,0.0,96,0.00,,---,0.00,VWS V13.01,2013-10-10 04:09:00,
2013-10-10 00:14:00,38.6,37.6,30.25,SE,138,0.0,0.0,96,0.00,,---,0.00,VWS V13.01,2013-10-10 04:14:00,
2013-10-10 00:19:00,37.9,36.9,30.25,SE,138,0.0,0.0,96,0.00,,---,0.00,VWS V13.01,2013-10-10 04:19:00,
2013-10-10 00:25:00,37.7,36.7,30.24,SE,138,0.0,0.0,96,0.00,,---,0.00,VWS V13.01,2013-10-10 04:25:00,
2013-10-10 00:30:00,37.8,36.8,30.25,SE,138,0.0,0.0,96,0.00,,---,0.00,VWS V13.01,2013-10-10 04:30:00,
2013-10-10 00:35:00,38.0,37.0,30.24,SE,138,0.0,0.0,96,0.00,,---,0.00,VWS V13.01,2013-10-10 04:35:00,
2013-10-10 00:40:00,38.2,37.2,30.24,SE,138,0.0,0.0,96,0.00,,---,0.00,VWS V13.01,2013-10-10 04:40:00,
2013-10-10 00:45:00,37.9,36.9,30.24,SE,138,0.0,0.0,96,0.00,,---,0.00,VWS V13.01,2013-10-10 04:45:00,
2013-10-10 00:51:00,37.6,36.6,30.24,SE,138,0.0,0.0,96,0.00,,---,0.00,VWS V13.01,2013-10-10 04:51:00,
2013-10-10 00:56:00,36.7,35.7,30.24,SE,138,0.0,0.0,96,0.00,,---,0.00,VWS V13.01,2013-10-10 04:56:00,
2013-10-10 01:01:00,36.5,35.5,30.23,SE,138,0.0,0.0,96,0.00,,---,0.00,VWS V13.01,2013-10-10 05:01:00,
2013-10-10 01:06:00,36.6,35.6,30.23,SE,138,0.0,0.0,96,0.00,,---,0.00,VWS V13.01,2013-10-10 05:06:00,
2013-10-10 01:12:00,36.8,35.8,30.23,SE,138,0.0,0.0,96,0.00,,---,0.00,VWS V13.01,2013-10-10 05:12:00,
2013-10-10 01:17:00,36.6,35.6,30.23,SE,138,0.0,0.0,96,0.00,,---,0.00,VWS V13.01,2013-10-10 05:17:00,
2013-10-10 01:22:00,36.8,35.8,30.23,SE,138,0.0,0.0,96,0.00,,---,0.00,VWS V13.01,2013-10-10 05:22:00,
2013-10-10 01:27:00,36.8,35.8,30.23,SE,138,0.0,0.0,96,0.00,,---,0.00,VWS V13.01,2013-10-10 05:27:00,
2013-10-10 01:32:00,36.9,35.9,30.23,SE,138,0.0,0.0,96,0.00,,---,0.00,VWS V13.01,2013-10-10 05:32:00,
2013-10-10 01:37:00,36.8,36.0,30.23,SE,138,0.0,0.0,97,0.00,,---,0.00,VWS V13.01,2013-10-10 05:37:00,
2013-10-10 01:42:00,36.7,35.9,30.23,SE,138,0.0,0.0,97,0.00,,---,0.00,VWS V13.01,2013-10-10 05:42:00,
2013-10-10 01:47:00,36.6,35.8,30.23,SE,138,0.0,0.0,97,0.00,,---,0.00,VWS V13.01,2013-10-10 05:47:00,
2013-10-10 01:52:00,36.3,35.5,30.23,SE,138,0.0,0.0,97,0.00,,---,0.00,VWS V13.01,2013-10-10 05:52:00,
2013-10-10 01:57:00,36.0,35.0,30.23,SE,138,0.0,0.0,96,0.00,,---,0.00,VWS V13.01,2013-10-10 05:57:00,
2013-10-10 02:02:00,35.8,34.8,30.23,SE,138,0.0,0.0,96,0.00,,---,0.00,VWS V13.01,2013-10-10 06:02:00,
2013-10-10 02:08:00,35.7,34.7,30.23,SE,138,0.0,0.0,96,0.00,,---,0.00,VWS V13.01,2013-10-10 06:08:00,
2013-10-10 02:13:00,35.5,34.5,30.23,SE,138,0.0,0.0,96,0.00,,---,0.00,VWS V13.01,2013-10-10 06:13:00,
2013-10-10 02:18:00,35.2,34.2,30.23,SE,138,0.0,0.0,96,0.00,,---,0.00,VWS V13.01,2013-10-10 06:18:00,
2013-10-10 02:23:00,35.3,34.5,30.23,SE,138,0.0,0.0,97,0.00,,---,0.00,VWS V13.01,2013-10-10 06:23:00,
2013-10-10 02:28:00,35.5,34.7,30.23,SE,138,0.0,0.0,97,0.00,,---,0.00,VWS V13.01,2013-10-10 06:28:00,
2013-10-10 02:33:00,35.0,34.0,30.23,SE,138,0.0,0.0,96,0.00,,---,0.00,VWS V13.01,2013-10-10 06:33:00,
2013-10-10 02:38:00,34.4,33.4,30.23,SE,138,0.0,0.0,96,0.00,,---,0.00,VWS V13.01,2013-10-10 06:38:00,
2013-10-10 02:43:00,34.4,33.4,30.23,SE,138,0.0,0.0,96,0.00,,---,0.00,VWS V13.01,2013-10-10 06:43:00,
2013-10-10 02:48:00,34.4,33.6,30.23,SE,138,0.0,0.0,97,0.00,,---,0.00,VWS V13.01,2013-10-10 06:48:00,
2013-10-10 02:53:00,34.4,33.6,30.22,SE,138,0.0,0.0,97,0.00,,---,0.00,VWS V13.01,2013-10-10 06:53:00,
2013-10-10 02:58:00,34.4,33.6,30.22,SE,138,0.0,0.0,97,0.00,,---,0.00,VWS V13.01,2013-10-10 06:58:00,
2013-10-10 03:03:00,34.4,33.6,30.22,SE,138,0.0,0.0,97,0.00,,---,0.00,VWS V13.01,2013-10-10 07:03:00,
2013-10-10 03:09:00,34.1,33.3,30.22,SE,138,0.0,0.0,97,0.00,,---,0.00,VWS V13.01,2013-10-10 07:09:00,
2013-10-10 03:14:00,33.9,33.1,30.22,SE,138,0.0,0.0,97,0.00,,---,0.00,VWS V13.01,2013-10-10 07:14:00,
2013-10-10 03:19:00,33.9,33.1,30.22,SE,138,0.0,0.0,97,0.00,,---,0.00,VWS V13.01,2013-10-10 07:19:00,
2013-10-10 03:24:00,33.9,33.1,30.22,SE,138,0.0,0.0,97,0.00,,---,0.00,VWS V13.01,2013-10-10 07:24:00,
2013-10-10 03:29:00,34.0,33.2,30.22,SE,138,0.0,0.0,97,0.00,,---,0.00,VWS V13.01,2013-10-10 07:29:00,
2013-10-10 03:35:00,34.2,33.4,30.22,SE,138,0.0,0.0,97,0.00,,---,0.00,VWS V13.01,2013-10-10 07:35:00,
2013-10-10 03:40:00,34.8,34.0,30.22,SE,138,0.0,1.0,97,0.00,,---,0.00,VWS V13.01,2013-10-10 07:40:00,
2013-10-10 03:45:00,35.9,35.1,30.22,SE,138,0.0,1.0,97,0.00,,---,0.00,VWS V13.01,2013-10-10 07:45:00,
2013-10-10 03:50:00,36.6,35.8,30.22,SE,138,0.0,1.0,97,0.00,,---,0.00,VWS V13.01,2013-10-10 07:50:00,
2013-10-10 03:55:00,36.9,36.4,30.22,SE,138,0.0,1.0,98,0.00,,---,0.00,VWS V13.01,2013-10-10 07:55:00,
2013-10-10 04:01:00,37.1,36.6,30.22,SE,138,0.0,0.0,98,0.00,,---,0.00,VWS V13.01,2013-10-10 08:01:00,
2013-10-10 04:06:00,37.2,36.7,30.22,SE,138,0.0,0.0,98,0.00,,---,0.00,VWS V13.01,2013-10-10 08:06:00,
2013-10-10 04:11:00,37.1,36.6,30.22,SE,138,0.0,0.0,98,0.00,,---,0.00,VWS V13.01,2013-10-10 08:11:00,
2013-10-10 04:16:00,36.4,35.9,30.22,SE,138,0.0,1.0,98,0.00,,---,0.00,VWS V13.01,2013-10-10 08:16:00,
2013-10-10 04:21:00,36.1,35.3,30.22,SE,138,0.0,1.0,97,0.00,,---,0.00,VWS V13.01,2013-10-10 08:21:00,
2013-10-10 04:27:00,35.6,34.8,30.22,SE,138,0.0,1.0,97,0.00,,---,0.00,VWS V13.01,2013-10-10 08:27:00,
2013-10-10 04:32:00,35.0,34.2,30.22,SE,138,0.0,0.0,97,0.00,,---,0.00,VWS V13.01,2013-10-10 08:32:00,
2013-10-10 04:37:00,35.2,34.4,30.22,SE,138,0.0,0.0,97,0.00,,---,0.00,VWS V13.01,2013-10-10 08:37:00,
2013-10-10 04:42:00,35.4,34.6,30.22,SE,138,0.0,0.0,97,0.00,,---,0.00,VWS V13.01,2013-10-10 08:42:00,
2013-10-10 04:47:00,35.6,34.8,30.23,SE,138,0.0,0.0,97,0.00,,---,0.00,VWS V13.01,2013-10-10 08:47:00,
2013-10-10 04:52:00,35.7,34.9,30.23,SE,138,0.0,0.0,97,0.00,,---,0.00,VWS V13.01,2013-10-10 08:52:00,
2013-10-10 04:57:00,35.4,34.9,30.23,SE,138,0.0,0.0,98,0.00,,---,0.00,VWS V13.01,2013-10-10 08:57:00,
2013-10-10 05:02:00,35.0,34.2,30.22,SE,138,0.0,0.0,97,0.00,,---,0.00,VWS V13.01,2013-10-10 09:02:00,
2013-10-10 05:07:00,34.4,33.6,30.22,SE,138,0.0,0.0,97,0.00,,---,0.00,VWS V13.01,2013-10-10 09:07:00,
2013-10-10 05:12:00,34.4,33.6,30.22,SE,138,0.0,0.0,97,0.00,,---,0.00,VWS V13.01,2013-10-10 09:12:00,
2013-10-10 05:17:00,34.4,33.6,30.22,SE,138,0.0,0.0,97,0.00,,---,0.00,VWS V13.01,2013-10-10 09:17:00,
2013-10-10 05:23:00,34.4,33.6,30.22,SE,138,0.0,0.0,97,0.00,,---,0.00,VWS V13.01,2013-10-10 09:23:00,
2013-10-10 05:28:00,34.4,33.6,30.22,SE,138,0.0,0.0,97,0.00,,---,0.00,VWS V13.01,2013-10-10 09:28:00,
2013-10-10 05:33:00,34.4,33.6,30.22,SE,138,0.0,0.0,97,0.00,,---,0.00,VWS V13.01,2013-10-10 09:33:00,
2013-10-10 05:38:00,34.4,33.6,30.22,SE,138,0.0,0.0,97,0.00,,---,0.00,VWS V13.01,2013-10-10 09:38:00,
2013-10-10 05:43:00,34.4,33.6,30.22,SE,138,0.0,0.0,97,0.00,,---,0.00,VWS V13.01,2013-10-10 09:43:00,
2013-10-10 05:48:00,34.4,33.6,30.22,SE,138,0.0,0.0,97,0.00,,---,0.00,VWS V13.01,2013-10-10 09:48:00,
2013-10-10 05:53:00,34.4,33.9,30.22,SE,138,0.0,0.0,98,0.00,,---,0.00,VWS V13.01,2013-10-10 09:53:00,
2013-10-10 05:58:00,34.4,33.9,30.23,SE,138,0.0,0.0,98,0.00,,---,0.00,VWS V13.01,2013-10-10 09:58:00,
2013-10-10 06:03:00,34.4,33.9,30.23,SE,138,0.0,0.0,98,0.00,,---,0.00,VWS V13.01,2013-10-10 10:03:00,
2013-10-10 06:08:00,34.2,33.7,30.23,SE,138,0.0,0.0,98,0.00,,---,0.00,VWS V13.01,2013-10-10 10:08:00,
2013-10-10 06:13:00,34.1,33.6,30.22,SE,138,0.0,0.0,98,0.00,,---,0.00,VWS V13.01,2013-10-10 10:13:00,
2013-10-10 06:18:00,34.1,33.3,30.23,SE,138,0.0,0.0,97,0.00,,---,0.00,VWS V13.01,2013-10-10 10:18:00,
2013-10-10 06:23:00,33.9,33.4,30.23,SE,138,0.0,0.0,98,0.00,,---,0.00,VWS V13.01,2013-10-10 10:23:00,
2013-10-10 06:28:00,33.9,33.4,30.23,SE,138,0.0,0.0,98,0.00,,---,0.00,VWS V13.01,2013-10-10 10:28:00,
2013-10-10 06:33:00,33.7,33.2,30.23,SE,138,0.0,0.0,98,0.00,,---,0.00,VWS V13.01,2013-10-10 10:33:00,
2013-10-10 06:39:00,33.6,32.8,30.23,SE,138,0.0,1.0,97,0.00,,---,0.00,VWS V13.01,2013-10-10 10:39:00,
2013-10-10 06:44:00,33.4,32.9,30.23,SE,138,0.0,1.0,98,0.00,,---,0.00,VWS V13.01,2013-10-10 10:44:00,
2013-10-10 06:49:00,33.2,32.7,30.23,SE,138,0.0,1.0,98,0.00,,---,0.00,VWS V13.01,2013-10-10 10:49:00,
2013-10-10 06:54:00,33.0,32.2,30.23,SE,138,0.0,1.0,97,0.00,,---,0.00,VWS V13.01,2013-10-10 10:54:00,
2013-10-10 06:59:00,32.9,32.4,30.23,SE,138,0.0,1.0,98,0.00,,---,0.00,VWS V13.01,2013-10-10 10:59:00,
2013-10-10 07:04:00,32.8,32.3,30.23,SE,138,0.0,0.0,98,0.00,,---,0.00,VWS V13.01,2013-10-10 11:04:00,
2013-10-10 07:09:00,32.8,32.3,30.23,SE,138,0.0,0.0,98,0.00,,---,0.00,VWS V13.01,2013-10-10 11:09:00,
2013-10-10 07:14:00,32.9,32.4,30.23,SE,138,0.0,0.0,98,0.00,,---,0.00,VWS V13.01,2013-10-10 11:14:00,
2013-10-10 07:19:00,33.0,32.5,30.23,SE,138,0.0,0.0,98,0.00,,---,0.00,VWS V13.01,2013-10-10 11:19:00,
2013-10-10 07:24:00,33.1,32.6,30.23,SE,138,0.0,0.0,98,0.00,,---,0.00,VWS V13.01,2013-10-10 11:24:00,
2013-10-10 07:29:00,33.1,32.6,30.23,SE,138,0.0,0.0,98,0.00,,---,0.00,VWS V13.01,2013-10-10 11:29:00,
2013-10-10 07:35:00,33.2,32.7,30.23,SE,138,0.0,0.0,98,0.00,,---,0.00,VWS V13.01,2013-10-10 11:35:00,
2013-10-10 07:40:00,33.3,32.8,30.23,SE,138,0.0,0.0,98,0.00,,---,0.00,VWS V13.01,2013-10-10 11:40:00,
2013-10-10 07:45:00,33.4,32.9,30.24,SE,138,0.0,0.0,98,0.00,,---,0.00,VWS V13.01,2013-10-10 11:45:00,
2013-10-10 07:50:00,33.4,32.9,30.24,SE,138,0.0,0.0,98,0.00,,---,0.00,VWS V13.01,2013-10-10 11:50:00,
2013-10-10 07:55:00,33.5,33.0,30.24,SE,138,0.0,0.0,98,0.00,,---,0.00,VWS V13.01,2013-10-10 11:55:00,
2013-10-10 08:00:00,33.6,33.1,30.24,SE,138,0.0,0.0,98,0.00,,---,0.00,VWS V13.01,2013-10-10 12:00:00,
2013-10-10 08:05:00,33.8,33.3,30.24,SE,138,0.0,0.0,98,0.00,,---,0.00,VWS V13.01,2013-10-10 12:05:00,
2013-10-10 08:10:00,34.0,33.5,30.24,SE,138,0.0,0.0,98,0.00,,---,0.00,VWS V13.01,2013-10-10 12:10:00,
2013-10-10 08:15:00,34.1,33.6,30.24,SE,138,0.0,0.0,98,0.00,,---,0.00,VWS V13.01,2013-10-10 12:15:00,
2013-10-10 08:20:00,34.1,33.6,30.24,SE,138,0.0,0.0,98,0.00,,---,0.00,VWS V13.01,2013-10-10 12:20:00,
2013-10-10 08:25:00,34.2,33.7,30.24,SE,138,0.0,0.0,98,0.00,,---,0.00,VWS V13.01,2013-10-10 12:25:00,
2013-10-10 08:30:00,34.3,33.8,30.24,SE,138,0.0,0.0,98,0.00,,---,0.00,VWS V13.01,2013-10-10 12:30:00,
2013-10-10 08:35:00,34.4,33.9,30.24,SE,138,0.0,0.0,98,0.00,,---,0.00,VWS V13.01,2013-10-10 12:35:00,
2013-10-10 08:40:00,34.4,33.9,30.25,SE,138,0.0,0.0,98,0.00,,---,0.00,VWS V13.01,2013-10-10 12:40:00,
2013-10-10 08:46:00,34.6,34.1,30.24,SE,138,0.0,0.0,98,0.00,,---,0.00,VWS V13.01,2013-10-10 12:46:00,
2013-10-10 08:51:00,35.1,34.6,30.24,SE,138,0.0,0.0,98,0.00,,---,0.00,VWS V13.01,2013-10-10 12:51:00,
2013-10-10 08:56:00,35.6,35.1,30.24,SE,138,0.0,0.0,98,0.00,,---,0.00,VWS V13.01,2013-10-10 12:56:00,
2013-10-10 09:01:00,35.9,35.4,30.24,SE,138,0.0,0.0,98,0.00,,---,0.00,VWS V13.01,2013-10-10 13:01:00,
2013-10-10 09:06:00,36.5,36.0,30.24,SE,138,0.0,1.0,98,0.00,,---,0.00,VWS V13.01,2013-10-10 13:06:00,
2013-10-10 09:11:00,37.0,36.5,30.24,SE,138,0.0,1.0,98,0.00,,---,0.00,VWS V13.01,2013-10-10 13:11:00,
2013-10-10 09:16:00,37.4,36.9,30.24,SE,138,0.0,1.0,98,0.00,,---,0.00,VWS V13.01,2013-10-10 13:16:00,
2013-10-10 09:21:00,37.9,37.4,30.24,SE,138,0.0,1.0,98,0.00,,---,0.00,VWS V13.01,2013-10-10 13:21:00,
2013-10-10 09:26:00,38.4,37.9,30.24,SE,138,0.0,1.0,98,0.00,,---,0.00,VWS V13.01,2013-10-10 13:26:00,
2013-10-10 09:31:00,38.7,38.2,30.24,SE,138,0.0,0.0,98,0.00,,---,0.00,VWS V13.01,2013-10-10 13:31:00,
2013-10-10 09:36:00,38.9,38.4,30.24,SE,138,0.0,0.0,98,0.00,,---,0.00,VWS V13.01,2013-10-10 13:36:00,
2013-10-10 09:41:00,39.5,39.2,30.24,SE,138,0.0,0.0,99,0.00,,---,0.00,VWS V13.01,2013-10-10 13:41:00,
2013-10-10 09:46:00,40.3,40.0,30.23,SE,138,0.0,0.0,99,0.00,,---,0.00,VWS V13.01,2013-10-10 13:46:00,
2013-10-10 09:51:00,40.6,40.3,30.23,SE,138,0.0,0.0,99,0.00,,---,0.00,VWS V13.01,2013-10-10 13:51:00,
2013-10-10 09:56:00,41.0,40.7,30.23,SE,138,0.0,0.0,99,0.00,,---,0.00,VWS V13.01,2013-10-10 13:56:00,
2013-10-10 10:01:00,41.4,41.1,30.23,SE,138,0.0,1.0,99,0.00,,---,0.00,VWS V13.01,2013-10-10 14:01:00,
2013-10-10 10:07:00,41.7,41.4,30.23,SE,138,0.0,1.0,99,0.00,,---,0.00,VWS V13.01,2013-10-10 14:07:00,
2013-10-10 10:12:00,42.1,41.8,30.23,SE,138,0.0,1.0,99,0.00,,---,0.00,VWS V13.01,2013-10-10 14:12:00,
2013-10-10 10:17:00,42.4,42.1,30.23,SE,138,0.0,1.0,99,0.00,,---,0.00,VWS V13.01,2013-10-10 14:17:00,
2013-10-10 10:22:00,42.9,42.6,30.23,SE,138,0.0,1.0,99,0.00,,---,0.00,VWS V13.01,2013-10-10 14:22:00,
2013-10-10 10:27:00,43.4,43.1,30.22,SE,138,0.0,1.0,99,0.00,,---,0.00,VWS V13.01,2013-10-10 14:27:00,
2013-10-10 10:33:00,44.0,43.7,30.22,SE,138,0.0,0.0,99,0.00,,---,0.00,VWS V13.01,2013-10-10 14:33:00,
2013-10-10 10:38:00,44.6,44.3,30.22,SE,138,0.0,0.0,99,0.00,,---,0.00,VWS V13.01,2013-10-10 14:38:00,
2013-10-10 10:43:00,44.9,44.6,30.22,SE,138,0.0,0.0,99,0.00,,---,0.00,VWS V13.01,2013-10-10 14:43:00,
2013-10-10 10:48:00,45.4,45.1,30.22,SE,138,0.0,0.0,99,0.00,,---,0.00,VWS V13.01,2013-10-10 14:48:00,
2013-10-10 10:53:00,46.4,46.1,30.21,SE,138,0.0,1.0,99,0.00,,---,0.00,VWS V13.01,2013-10-10 14:53:00,
2013-10-10 10:59:00,47.0,46.7,30.21,SE,138,0.0,1.0,99,0.00,,---,0.00,VWS V13.01,2013-10-10 14:59:00,
2013-10-10 11:04:00,48.0,47.7,30.21,SE,138,0.0,0.0,99,0.00,,---,0.00,VWS V13.01,2013-10-10 15:04:00,
2013-10-10 11:09:00,49.0,48.5,30.21,SE,138,0.0,0.0,98,0.00,,---,0.00,VWS V13.01,2013-10-10 15:09:00,
2013-10-10 11:14:00,50.1,48.4,30.21,SE,138,0.0,3.0,94,0.00,,---,0.00,VWS V13.01,2013-10-10 15:14:00,
2013-10-10 11:19:00,51.4,48.3,30.21,SE,138,4.0,4.0,89,0.00,,---,0.00,VWS V13.01,2013-10-10 15:19:00,
2013-10-10 11:25:00,52.6,47.9,30.21,SE,138,0.0,4.0,84,0.00,,---,0.00,VWS V13.01,2013-10-10 15:25:00,
2013-10-10 11:30:00,53.9,47.5,30.20,SE,138,0.0,4.0,79,0.00,,---,0.00,VWS V13.01,2013-10-10 15:30:00,
2013-10-10 11:35:00,54.7,46.9,30.21,SE,136,0.0,6.0,75,0.00,,---,0.00,VWS V13.01,2013-10-10 15:35:00,
2013-10-10 11:40:00,55.1,45.9,30.20,ESE,102,0.0,6.0,71,0.00,,---,0.00,VWS V13.01,2013-10-10 15:40:00,
2013-10-10 11:45:00,55.8,46.2,30.20,ESE,103,0.0,6.0,70,0.00,,---,0.00,VWS V13.01,2013-10-10 15:45:00,
2013-10-10 11:50:00,56.3,46.3,30.20,ESE,103,0.0,6.0,69,0.00,,---,0.00,VWS V13.01,2013-10-10 15:50:00,
2013-10-10 11:55:00,57.0,46.9,30.20,ESE,103,0.0,6.0,69,0.00,,---,0.00,VWS V13.01,2013-10-10 15:55:00,
2013-10-10 12:01:00,57.9,47.8,30.19,ESE,103,0.0,4.0,69,0.00,,---,0.00,VWS V13.01,2013-10-10 16:01:00,
2013-10-10 12:06:00,58.5,47.2,30.19,ESE,103,0.0,4.0,66,0.00,,---,0.00,VWS V13.01,2013-10-10 16:06:00,
2013-10-10 12:11:00,59.0,47.7,30.19,ESE,105,0.0,4.0,66,0.00,,---,0.00,VWS V13.01,2013-10-10 16:11:00,
2013-10-10 12:16:00,59.0,46.8,30.18,ESE,104,0.0,4.0,64,0.00,,---,0.00,VWS V13.01,2013-10-10 16:16:00,
2013-10-10 12:21:00,59.5,46.1,30.18,ESE,105,5.0,5.0,61,0.00,,---,0.00,VWS V13.01,2013-10-10 16:21:00,
2013-10-10 12:27:00,60.4,46.5,30.18,East,90,5.0,8.0,60,0.00,,---,0.00,VWS V13.01,2013-10-10 16:27:00,
2013-10-10 12:32:00,60.5,43.8,30.18,East,90,1.0,7.0,54,0.00,,---,0.00,VWS V13.01,2013-10-10 16:32:00,
2013-10-10 12:37:00,61.0,45.7,30.17,East,94,2.0,7.0,57,0.00,,---,0.00,VWS V13.01,2013-10-10 16:37:00,
2013-10-10 12:42:00,61.3,45.0,30.17,East,101,2.0,9.0,55,0.00,,---,0.00,VWS V13.01,2013-10-10 16:42:00,
2013-10-10 12:47:00,61.1,45.8,30.17,ESE,107,1.0,9.0,57,0.00,,---,0.00,VWS V13.01,2013-10-10 16:47:00,
2013-10-10 12:52:00,61.3,45.5,30.17,ESE,115,2.0,9.0,56,0.00,,---,0.00,VWS V13.01,2013-10-10 16:52:00,
2013-10-10 12:57:00,61.4,45.1,30.16,ESE,121,0.0,9.0,55,0.00,,---,0.00,VWS V13.01,2013-10-10 16:57:00,
2013-10-10 13:02:00,61.5,45.2,30.16,ESE,119,0.0,5.0,55,0.00,,---,0.00,VWS V13.01,2013-10-10 17:02:00,
2013-10-10 13:07:00,61.4,45.6,30.15,ESE,120,0.0,6.0,56,0.00,,---,0.00,VWS V13.01,2013-10-10 17:07:00,
2013-10-10 13:12:00,61.3,47.3,30.15,ESE,119,0.0,6.0,60,0.00,,---,0.00,VWS V13.01,2013-10-10 17:12:00,
2013-10-10 13:17:00,61.4,46.0,30.15,ESE,120,0.0,6.0,57,0.00,,---,0.00,VWS V13.01,2013-10-10 17:17:00,
2013-10-10 13:22:00,61.2,45.9,30.15,ESE,120,0.0,6.0,57,0.00,,---,0.00,VWS V13.01,2013-10-10 17:22:00,
2013-10-10 13:28:00,61.1,43.9,30.15,ESE,119,0.0,6.0,53,0.00,,---,0.00,VWS V13.01,2013-10-10 17:28:00,
2013-10-10 13:33:00,61.1,44.3,30.14,ESE,119,0.0,0.0,54,0.00,,---,0.00,VWS V13.01,2013-10-10 17:33:00,
2013-10-10 13:38:00,60.9,47.8,30.14,ESE,122,0.0,4.0,62,0.00,,---,0.00,VWS V13.01,2013-10-10 17:38:00,
2013-10-10 13:43:00,60.6,47.5,30.14,ESE,122,0.0,4.0,62,0.00,,---,0.00,VWS V13.01,2013-10-10 17:43:00,
2013-10-10 13:48:00,60.4,46.9,30.14,ESE,122,0.0,4.0,61,0.00,,---,0.00,VWS V13.01,2013-10-10 17:48:00,
2013-10-10 13:53:00,60.2,45.8,30.13,ESE,122,0.0,5.0,59,0.00,,---,0.00,VWS V13.01,2013-10-10 17:53:00,
2013-10-10 13:58:00,60.4,43.2,30.13,ESE,122,0.0,5.0,53,0.00,,---,0.00,VWS V13.01,2013-10-10 17:58:00,
2013-10-10 14:03:00,60.6,45.8,30.13,ESE,122,0.0,0.0,58,0.00,,---,0.00,VWS V13.01,2013-10-10 18:03:00,
2013-10-10 14:08:00,60.5,47.0,30.13,ESE,122,0.0,0.0,61,0.00,,---,0.00,VWS V13.01,2013-10-10 18:08:00,
2013-10-10 14:13:00,60.7,47.6,30.13,ESE,123,0.0,1.0,62,0.00,,---,0.00,VWS V13.01,2013-10-10 18:13:00,
2013-10-10 14:18:00,61.5,43.7,30.12,ESE,123,0.0,1.0,52,0.00,,---,0.00,VWS V13.01,2013-10-10 18:18:00,
2013-10-10 14:23:00,62.9,42.9,30.12,ESE,123,0.0,4.0,48,0.00,,---,0.00,VWS V13.01,2013-10-10 18:23:00,
2013-10-10 14:28:00,63.6,45.2,30.12,SE,137,4.0,4.0,51,0.00,,---,0.00,VWS V13.01,2013-10-10 18:28:00,
2013-10-10 14:34:00,64.3,43.7,30.12,SE,137,2.0,5.0,47,0.00,,---,0.00,VWS V13.01,2013-10-10 18:34:00,
2013-10-10 14:39:00,64.8,42.4,30.11,NNE,25,0.0,8.0,44,0.00,,---,0.00,VWS V13.01,2013-10-10 18:39:00,
2013-10-10 14:44:00,65.2,42.2,30.11,NNE,26,0.0,8.0,43,0.00,,---,0.00,VWS V13.01,2013-10-10 18:44:00,
2013-10-10 14:49:00,65.9,42.8,30.11,NNE,32,0.0,8.0,43,0.00,,---,0.00,VWS V13.01,2013-10-10 18:49:00,
2013-10-10 14:54:00,66.0,43.5,30.11,NE,44,0.0,8.0,44,0.00,,---,0.00,VWS V13.01,2013-10-10 18:54:00,
2013-10-10 14:59:00,65.5,47.9,30.11,NE,55,0.0,8.0,53,0.00,,---,0.00,VWS V13.01,2013-10-10 18:59:00,
2013-10-10 15:04:00,65.3,48.7,30.11,NE,56,0.0,0.0,55,0.00,,---,0.00,VWS V13.01,2013-10-10 19:04:00,
2013-10-10 15:09:00,65.5,46.4,30.11,NE,55,0.0,0.0,50,0.00,,---,0.00,VWS V13.01,2013-10-10 19:09:00,
2013-10-10 15:14:00,65.9,47.3,30.11,NE,56,0.0,1.0,51,0.00,,---,0.00,VWS V13.01,2013-10-10 19:14:00,
2013-10-10 15:19:00,66.3,48.7,30.11,NE,56,0.0,1.0,53,0.00,,---,0.00,VWS V13.01,2013-10-10 19:19:00,
2013-10-10 15:25:00,66.6,45.8,30.11,NE,56,0.0,1.0,47,0.00,,---,0.00,VWS V13.01,2013-10-10 19:25:00,
2013-10-10 15:30:00,67.1,46.8,30.11,NE,56,0.0,1.0,48,0.00,,---,0.00,VWS V13.01,2013-10-10 19:30:00,
2013-10-10 15:35:00,67.4,45.3,30.11,NE,56,0.0,1.0,45,0.00,,---,0.00,VWS V13.01,2013-10-10 19:35:00,
2013-10-10 15:40:00,67.9,44.6,30.11,NE,56,0.0,1.0,43,0.00,,---,0.00,VWS V13.01,2013-10-10 19:40:00,
2013-10-10 15:45:00,68.2,47.2,30.10,NE,56,0.0,1.0,47,0.00,,---,0.00,VWS V13.01,2013-10-10 19:45:00,
2013-10-10 15:50:00,68.6,48.2,30.10,NE,55,0.0,1.0,48,0.00,,---,0.00,VWS V13.01,2013-10-10 19:50:00,
2013-10-10 15:56:00,68.8,49.4,30.10,NE,56,0.0,1.0,50,0.00,,---,0.00,VWS V13.01,2013-10-10 19:56:00,
2013-10-10 16:01:00,68.6,48.7,30.10,NE,55,0.0,0.0,49,0.00,,---,0.00,VWS V13.01,2013-10-10 20:01:00,
2013-10-10 16:06:00,67.7,51.0,30.10,NE,55,0.0,0.0,55,0.00,,---,0.00,VWS V13.01,2013-10-10 20:06:00,
2013-10-10 16:12:00,67.3,48.6,30.09,NE,56,0.0,0.0,51,0.00,,---,0.00,VWS V13.01,2013-10-10 20:12:00,
2013-10-10 16:17:00,67.1,49.4,30.10,NE,56,0.0,0.0,53,0.00,,---,0.00,VWS V13.01,2013-10-10 20:17:00,
2013-10-10 16:22:00,67.0,51.3,30.09,NE,56,0.0,0.0,57,0.00,,---,0.00,VWS V13.01,2013-10-10 20:22:00,
2013-10-10 16:27:00,66.6,50.0,30.09,NE,56,0.0,1.0,55,0.00,,---,0.00,VWS V13.01,2013-10-10 20:27:00,
2013-10-10 16:32:00,66.7,48.0,30.09,East,97,4.0,5.0,51,0.00,,---,0.00,VWS V13.01,2013-10-10 20:32:00,
2013-10-10 16:38:00,67.0,48.3,30.09,ESE,104,0.0,5.0,51,0.00,,---,0.00,VWS V13.01,2013-10-10 20:38:00,
2013-10-10 16:43:00,67.4,48.1,30.09,ESE,103,0.0,5.0,50,0.00,,---,0.00,VWS V13.01,2013-10-10 20:43:00,
2013-10-10 16:44:00,67.5,48.2,30.09,ESE,104,0.0,5.0,50,0.00,,---,0.00,VWS V13.01,2013-10-10 20:44:00,
2013-10-10 16:50:00,67.8,49.0,30.09,ESE,103,0.0,5.0,51,0.00,,---,0.00,VWS V13.01,2013-10-10 20:50:00,
2013-10-10 16:55:00,67.9,47.0,30.08,ESE,104,0.0,5.0,47,0.00,,---,0.00,VWS V13.01,2013-10-10 20:55:00,
2013-10-10 17:00:00,67.6,48.8,30.08,ESE,109,0.0,0.0,51,0.00,,---,0.00,VWS V13.01,2013-10-10 21:00:00,
2013-10-10 17:05:00,67.3,49.1,30.08,ESE,109,0.0,1.0,52,0.00,,---,0.00,VWS V13.01,2013-10-10 21:05:00,
2013-10-10 17:11:00,67.2,46.9,30.08,ESE,109,0.0,1.0,48,0.00,,---,0.00,VWS V13.01,2013-10-10 21:11:00,
2013-10-10 17:16:00,67.1,46.2,30.08,ESE,112,0.0,1.0,47,0.00,,---,0.00,VWS V13.01,2013-10-10 21:16:00,
2013-10-10 17:21:00,66.5,49.4,30.08,ESE,112,0.0,1.0,54,0.00,,---,0.00,VWS V13.01,2013-10-10 21:21:00,
2013-10-10 17:26:00,65.1,48.1,30.08,ESE,112,0.0,1.0,54,0.00,,---,0.00,VWS V13.01,2013-10-10 21:26:00,
2013-10-10 17:31:00,64.1,49.5,30.08,ESE,111,0.0,1.0,59,0.00,,---,0.00,VWS V13.01,2013-10-10 21:31:00,
2013-10-10 17:37:00,63.3,49.2,30.08,ESE,112,0.0,1.0,60,0.00,,---,0.00,VWS V13.01,2013-10-10 21:37:00,
2013-10-10 17:42:00,62.6,49.0,30.08,ESE,111,0.0,1.0,61,0.00,,---,0.00,VWS V13.01,2013-10-10 21:42:00,
2013-10-10 17:47:00,62.1,49.4,30.08,ESE,112,0.0,1.0,63,0.00,,---,0.00,VWS V13.01,2013-10-10 21:47:00,
2013-10-10 17:52:00,61.6,48.0,30.08,ESE,111,0.0,1.0,61,0.00,,---,0.00,VWS V13.01,2013-10-10 21:52:00,
2013-10-10 17:57:00,61.2,47.2,30.08,ESE,112,0.0,1.0,60,0.00,,---,0.00,VWS V13.01,2013-10-10 21:57:00,
2013-10-10 18:03:00,61.1,48.0,30.08,ESE,112,0.0,0.0,62,0.00,,---,0.00,VWS V13.01,2013-10-10 22:03:00,
2013-10-10 18:08:00,60.7,48.9,30.08,ESE,112,0.0,0.0,65,0.00,,---,0.00,VWS V13.01,2013-10-10 22:08:00,
2013-10-10 18:13:00,60.3,47.2,30.08,ESE,112,0.0,0.0,62,0.00,,---,0.00,VWS V13.01,2013-10-10 22:13:00,
2013-10-10 18:18:00,59.8,48.0,30.08,ESE,112,0.0,0.0,65,0.00,,---,0.00,VWS V13.01,2013-10-10 22:18:00,
2013-10-10 18:23:00,59.3,48.8,30.08,ESE,112,0.0,0.0,68,0.00,,---,0.00,VWS V13.01,2013-10-10 22:23:00,
2013-10-10 18:29:00,59.0,46.8,30.08,SSE,158,0.0,7.0,64,0.00,,---,0.00,VWS V13.01,2013-10-10 22:29:00,
2013-10-10 18:34:00,58.6,48.9,30.08,SSE,158,0.0,0.0,70,0.00,,---,0.00,VWS V13.01,2013-10-10 22:34:00,
2013-10-10 18:39:00,58.1,48.4,30.08,SSE,157,0.0,0.0,70,0.00,,---,0.00,VWS V13.01,2013-10-10 22:39:00,
2013-10-10 18:44:00,57.6,48.3,30.08,SSE,158,0.0,1.0,71,0.00,,---,0.00,VWS V13.01,2013-10-10 22:44:00,
2013-10-10 18:49:00,56.9,48.0,30.08,SSE,157,0.0,1.0,72,0.00,,---,0.00,VWS V13.01,2013-10-10 22:49:00,
2013-10-10 18:55:00,55.8,47.3,30.08,SSE,158,0.0,1.0,73,0.00,,---,0.00,VWS V13.01,2013-10-10 22:55:00,
2013-10-10 19:00:00,55.0,47.9,30.08,SSE,158,0.0,0.0,77,0.00,,---,0.00,VWS V13.01,2013-10-10 23:00:00,
2013-10-10 19:05:00,53.9,48.9,30.09,SSE,158,0.0,0.0,83,0.00,,---,0.00,VWS V13.01,2013-10-10 23:05:00,
2013-10-10 19:10:00,53.0,47.7,30.09,SSE,157,0.0,0.0,82,0.00,,---,0.00,VWS V13.01,2013-10-10 23:10:00,
2013-10-10 19:15:00,52.5,47.5,30.09,SSE,158,0.0,0.0,83,0.00,,---,0.00,VWS V13.01,2013-10-10 23:15:00,
2013-10-10 19:21:00,51.8,47.1,30.09,SSE,157,0.0,0.0,84,0.00,,---,0.00,VWS V13.01,2013-10-10 23:21:00,
2013-10-10 19:26:00,51.2,46.8,30.09,SSE,158,0.0,0.0,85,0.00,,---,0.00,VWS V13.01,2013-10-10 23:26:00,
2013-10-10 19:31:00,50.7,46.4,30.09,SSE,157,0.0,0.0,85,0.00,,---,0.00,VWS V13.01,2013-10-10 23:31:00,
2013-10-10 19:36:00,50.4,46.4,30.09,SSE,157,0.0,0.0,86,0.00,,---,0.00,VWS V13.01,2013-10-10 23:36:00,
2013-10-10 19:42:00,49.7,45.7,30.08,SSE,158,0.0,0.0,86,0.00,,---,0.00,VWS V13.01,2013-10-10 23:42:00,
2013-10-10 19:47:00,49.1,45.4,30.08,SSE,158,0.0,0.0,87,0.00,,---,0.00,VWS V13.01,2013-10-10 23:47:00,
2013-10-10 19:52:00,48.6,45.2,30.08,SSE,157,0.0,0.0,88,0.00,,---,0.00,VWS V13.01,2013-10-10 23:52:00,
2013-10-10 19:57:00,48.1,44.7,30.08,SSE,158,0.0,0.0,88,0.00,,---,0.00,VWS V13.01,2013-10-10 23:57:00,
2013-10-10 20:02:00,47.8,44.7,30.08,SSE,158,0.0,0.0,89,0.00,,---,0.00,VWS V13.01,2013-10-11 00:02:00,
2013-10-10 20:08:00,47.5,44.4,30.08,SSE,158,0.0,0.0,89,0.00,,---,0.00,VWS V13.01,2013-10-11 00:08:00,
2013-10-10 20:13:00,47.4,44.6,30.08,SSE,157,0.0,0.0,90,0.00,,---,0.00,VWS V13.01,2013-10-11 00:13:00,
2013-10-10 20:18:00,47.2,44.7,30.09,SSE,157,0.0,0.0,91,0.00,,---,0.00,VWS V13.01,2013-10-11 00:18:00,
2013-10-10 20:23:00,47.1,44.6,30.09,SSE,158,0.0,0.0,91,0.00,,---,0.00,VWS V13.01,2013-10-11 00:23:00,
2013-10-10 20:29:00,47.0,44.8,30.09,SSE,157,0.0,0.0,92,0.00,,---,0.00,VWS V13.01,2013-10-11 00:29:00,
2013-10-10 20:34:00,46.4,44.2,30.08,SSE,157,0.0,0.0,92,0.00,,---,0.00,VWS V13.01,2013-10-11 00:34:00,
2013-10-10 20:39:00,46.0,43.8,30.08,SSE,158,0.0,0.0,92,0.00,,---,0.00,VWS V13.01,2013-10-11 00:39:00,
2013-10-10 20:44:00,45.9,43.7,30.08,SSE,158,0.0,0.0,92,0.00,,---,0.00,VWS V13.01,2013-10-11 00:44:00,
2013-10-10 20:49:00,45.9,44.0,30.08,SSE,158,0.0,0.0,93,0.00,,---,0.00,VWS V13.01,2013-10-11 00:49:00,
2013-10-10 20:55:00,45.9,44.0,30.08,SSE,158,0.0,0.0,93,0.00,,---,0.00,VWS V13.01,2013-10-11 00:55:00,
2013-10-10 21:00:00,45.9,44.0,30.08,SSE,158,0.0,0.0,93,0.00,,---,0.00,VWS V13.01,2013-10-11 01:00:00,
2013-10-10 21:05:00,46.1,44.5,30.08,SSE,158,0.0,0.0,94,0.00,,---,0.00,VWS V13.01,2013-10-11 01:05:00,
2013-10-10 21:10:00,46.0,44.4,30.08,SSE,157,0.0,0.0,94,0.00,,---,0.00,VWS V13.01,2013-10-11 01:10:00,
2013-10-10 21:16:00,45.9,44.3,30.08,SSE,157,0.0,0.0,94,0.00,,---,0.00,VWS V13.01,2013-10-11 01:16:00,
2013-10-10 21:21:00,45.8,43.9,30.09,SSE,158,0.0,0.0,93,0.00,,---,0.00,VWS V13.01,2013-10-11 01:21:00,
2013-10-10 21:26:00,45.7,43.8,30.09,SSE,158,0.0,0.0,93,0.00,,---,0.00,VWS V13.01,2013-10-11 01:26:00,
2013-10-10 21:31:00,45.6,44.0,30.09,SSE,157,0.0,0.0,94,0.00,,---,0.00,VWS V13.01,2013-10-11 01:31:00,
2013-10-10 21:36:00,45.4,43.8,30.09,SSE,158,0.0,0.0,94,0.00,,---,0.00,VWS V13.01,2013-10-11 01:36:00,
2013-10-10 21:42:00,45.3,43.7,30.09,SSE,157,0.0,0.0,94,0.00,,---,0.00,VWS V13.01,2013-10-11 01:42:00,
2013-10-10 21:47:00,45.2,43.6,30.09,SSE,158,0.0,0.0,94,0.00,,---,0.00,VWS V13.01,2013-10-11 01:47:00,
2013-10-10 21:52:00,45.0,43.1,30.09,SSE,158,0.0,0.0,93,0.00,,---,0.00,VWS V13.01,2013-10-11 01:52:00,
2013-10-10 21:58:00,44.5,42.6,30.10,SSE,158,0.0,0.0,93,0.00,,---,0.00,VWS V13.01,2013-10-11 01:58:00,
2013-10-10 22:03:00,44.4,42.8,30.10,SSE,158,0.0,0.0,94,0.00,,---,0.00,VWS V13.01,2013-10-11 02:03:00,
2013-10-10 22:08:00,44.4,42.8,30.10,SSE,158,0.0,0.0,94,0.00,,---,0.00,VWS V13.01,2013-10-11 02:08:00,
2013-10-10 22:13:00,44.4,42.8,30.10,SSE,157,0.0,0.0,94,0.00,,---,0.00,VWS V13.01,2013-10-11 02:13:00,
2013-10-10 22:18:00,44.2,42.6,30.10,SSE,157,0.0,0.0,94,0.00,,---,0.00,VWS V13.01,2013-10-11 02:18:00,
2013-10-10 22:24:00,44.2,42.6,30.10,SSE,158,0.0,0.0,94,0.00,,---,0.00,VWS V13.01,2013-10-11 02:24:00,
2013-10-10 22:29:00,44.3,43.0,30.10,SSE,158,0.0,0.0,95,0.00,,---,0.00,VWS V13.01,2013-10-11 02:29:00,
2013-10-10 22:34:00,44.0,42.4,30.10,SSE,158,0.0,0.0,94,0.00,,---,0.00,VWS V13.01,2013-10-11 02:34:00,
2013-10-10 22:39:00,43.8,42.2,30.10,SSE,158,0.0,0.0,94,0.00,,---,0.00,VWS V13.01,2013-10-11 02:39:00,
2013-10-10 22:44:00,43.9,42.6,30.10,SSE,158,0.0,0.0,95,0.00,,---,0.00,VWS V13.01,2013-10-11 02:44:00,
2013-10-10 22:49:00,43.8,42.5,30.10,SSE,157,0.0,0.0,95,0.00,,---,0.00,VWS V13.01,2013-10-11 02:49:00,
2013-10-10 22:54:00,43.8,42.5,30.10,SSE,157,0.0,0.0,95,0.00,,---,0.00,VWS V13.01,2013-10-11 02:54:00,
2013-10-10 23:00:00,43.7,42.1,30.10,SSE,157,0.0,0.0,94,0.00,,---,0.00,VWS V13.01,2013-10-11 03:00:00,
2013-10-10 23:05:00,43.7,42.4,30.10,SSE,157,0.0,0.0,95,0.00,,---,0.00,VWS V13.01,2013-10-11 03:05:00,
2013-10-10 23:10:00,43.7,42.4,30.10,SSE,157,0.0,0.0,95,0.00,,---,0.00,VWS V13.01,2013-10-11 03:10:00,
2013-10-10 23:15:00,43.5,41.9,30.09,SSE,158,0.0,0.0,94,0.00,,---,0.00,VWS V13.01,2013-10-11 03:15:00,
2013-10-10 23:20:00,43.4,41.8,30.09,SSE,158,0.0,0.0,94,0.00,,---,0.00,VWS V13.01,2013-10-11 03:20:00,
2013-10-10 23:25:00,43.3,42.0,30.09,SSE,158,0.0,0.0,95,0.00,,---,0.00,VWS V13.01,2013-10-11 03:25:00,
2013-10-10 23:31:00,43.4,42.1,30.09,SSE,158,0.0,0.0,95,0.00,,---,0.00,VWS V13.01,2013-10-11 03:31:00,
2013-10-10 23:36:00,43.4,42.1,30.09,SSE,157,0.0,0.0,95,0.00,,---,0.00,VWS V13.01,2013-10-11 03:36:00,
2013-10-10 23:41:00,43.5,42.2,30.09,SSE,157,0.0,0.0,95,0.00,,---,0.00,VWS V13.01,2013-10-11 03:41:00,
2013-10-10 23:46:00,43.4,42.1,30.08,SSE,158,0.0,0.0,95,0.00,,---,0.00,VWS V13.01,2013-10-11 03:46:00,
2013-10-10 23:51:00,43.1,41.8,30.08,SSE,157,0.0,0.0,95,0.00,,---,0.00,VWS V13.01,2013-10-11 03:51:00,
2013-10-10 23:57:00,43.1,41.8,30.08,SSE,157,0.0,0.0,95,0.00,,---,0.00,VWS V13.01,2013-10-11 03:57:00,